createdAt,value
2023-02-06T00:00:08.023Z,89540.00
2023-02-06T00:01:07.960Z,89538.00
2023-02-06T00:02:07.938Z,89532.00
2023-02-06T00:03:07.873Z,89534.00
2023-02-06T00:04:07.828Z,89532.00
2023-02-06T01:59:03.275Z,89560.00
2023-02-06T02:01:03.250Z,89554.00
2023-02-06T02:02:03.315Z,89554.00
2023-02-06T02:03:03.116Z,89554.00
2023-02-06T02:04:03.080Z,89552.00
2023-02-06T02:05:03.056Z,89550.00
2023-02-06T02:06:03.020Z,89550.00
2023-02-06T02:07:02.975Z,89548.00
2023-02-06T02:08:02.941Z,89546.00
2023-02-06T02:09:02.911Z,89546.00
2023-02-06T02:10:02.870Z,89546.00
2023-02-06T02:11:02.874Z,89548.00
2023-02-06T02:12:02.792Z,89550.00
2023-02-06T02:13:02.756Z,89550.00
2023-02-06T02:14:02.713Z,89550.00
2023-02-06T02:15:02.683Z,89552.00
2023-02-06T02:16:02.689Z,89552.00
2023-02-06T02:17:02.606Z,89552.00
2023-02-06T02:18:02.603Z,89550.00
2023-02-06T02:19:02.546Z,89550.00
2023-02-06T02:20:02.495Z,89552.00
2023-02-06T02:21:02.460Z,89554.00
2023-02-06T02:22:02.426Z,89556.00
2023-02-06T02:23:02.392Z,89554.00
2023-02-06T02:24:02.408Z,89550.00
2023-02-06T02:25:02.307Z,89550.00
2023-02-06T02:26:02.264Z,89550.00
2023-02-06T02:27:02.231Z,89550.00
2023-02-06T02:28:02.233Z,89552.00
2023-02-06T02:29:02.157Z,89556.00
2023-02-06T02:30:02.140Z,89554.00
2023-02-06T02:31:02.101Z,89552.00
2023-02-06T02:32:02.089Z,89554.00
2023-02-06T02:33:02.102Z,89554.00
2023-02-06T02:34:01.991Z,89556.00
2023-02-06T02:35:01.971Z,89558.00
2023-02-06T02:36:01.939Z,89558.00
2023-02-06T02:37:01.890Z,89558.00
2023-02-06T02:38:01.880Z,89558.00
2023-02-06T02:39:01.819Z,89556.00
2023-02-06T02:40:01.816Z,89556.00
2023-02-06T02:41:01.754Z,89560.00
2023-02-06T02:42:01.721Z,89558.00
2023-02-06T02:43:01.681Z,89558.00
2023-02-06T02:44:01.655Z,89556.00
2023-02-06T02:45:01.615Z,89552.00
2023-02-06T02:46:01.596Z,89550.00
2023-02-06T02:47:01.540Z,89556.00
2023-02-06T02:48:01.543Z,89556.00
2023-02-06T02:49:01.516Z,89556.00
2023-02-06T02:50:01.430Z,89558.00
2023-02-06T02:51:01.390Z,89560.00
2023-02-06T02:52:01.353Z,89558.00
2023-02-06T02:53:01.327Z,89558.00
2023-02-06T02:54:01.305Z,89558.00
2023-02-06T02:55:01.258Z,89558.00
2023-02-06T02:56:01.214Z,89558.00
2023-02-06T02:57:01.181Z,89558.00
2023-02-06T02:58:01.174Z,89550.00
2023-02-06T02:59:01.112Z,89552.00
2023-02-06T03:00:01.090Z,89552.00
2023-02-06T03:01:01.112Z,89550.00
2023-02-06T03:02:01.090Z,89552.00
2023-02-06T03:03:00.980Z,89548.00
2023-02-06T03:04:00.931Z,89550.00
2023-02-06T03:05:00.902Z,89552.00
2023-02-06T03:06:00.880Z,89556.00
2023-02-06T03:07:00.838Z,89554.00
2023-02-06T03:08:00.836Z,89562.00
2023-02-06T03:09:00.794Z,89560.00
2023-02-06T03:10:00.773Z,89562.00
2023-02-06T03:11:00.717Z,89562.00
2023-02-06T03:12:00.670Z,89564.00
2023-02-06T03:13:00.661Z,89560.00
2023-02-06T03:14:00.614Z,89560.00
2023-02-06T03:15:00.589Z,89558.00
2023-02-06T03:16:00.562Z,89562.00
2023-02-06T03:17:00.534Z,89558.00
2023-02-06T03:18:00.502Z,89560.00
2023-02-06T03:19:00.461Z,89562.00
2023-02-06T03:20:00.433Z,89560.00
2023-02-06T03:21:00.396Z,89562.00
2023-02-06T03:22:00.364Z,89562.00
2023-02-06T03:23:00.344Z,89564.00
2023-02-06T03:24:00.303Z,89566.00
2023-02-06T03:25:00.267Z,89564.00
2023-02-06T03:26:00.233Z,89568.00
2023-02-06T03:27:00.202Z,89570.00
2023-02-06T03:28:00.245Z,89572.00
2023-02-06T03:29:00.139Z,89572.00
2023-02-06T03:30:00.135Z,89573.00
2023-02-06T03:31:00.151Z,89573.00
2023-02-06T03:32:00.034Z,89572.00
2023-02-06T03:33:00.006Z,89572.00
2023-02-06T03:33:59.957Z,89570.00
2023-02-06T03:34:59.925Z,89572.00
2023-02-06T03:35:59.880Z,89568.00
2023-02-06T03:36:59.851Z,89570.00
2023-02-06T03:37:59.809Z,89570.00
2023-02-06T03:38:59.785Z,89575.00
2023-02-06T03:39:59.746Z,89573.00
2023-02-06T03:40:59.718Z,89572.00
2023-02-06T03:41:59.684Z,89570.00
2023-02-06T03:42:59.651Z,89570.00
2023-02-06T03:43:59.638Z,89572.00
2023-02-06T03:44:59.588Z,89575.00
2023-02-06T03:45:59.568Z,89575.00
2023-02-06T03:46:59.524Z,89575.00
2023-02-06T03:47:59.500Z,89573.00
2023-02-06T03:48:59.456Z,89577.00
2023-02-06T03:49:59.431Z,89575.00
2023-02-06T03:50:59.390Z,89575.00
2023-02-06T03:51:59.358Z,89575.00
2023-02-06T03:52:59.325Z,89573.00
2023-02-06T03:53:59.299Z,89572.00
2023-02-06T03:54:59.270Z,89572.00
2023-02-06T03:55:59.229Z,89568.00
2023-02-06T03:56:59.194Z,89570.00
2023-02-06T03:57:59.163Z,89570.00
2023-02-06T03:58:59.132Z,89568.00
2023-02-06T03:59:59.075Z,89572.00
2023-02-06T04:00:59.059Z,89572.00
2023-02-06T04:01:59.056Z,89572.00
2023-02-06T04:02:58.971Z,89573.00
2023-02-06T04:03:58.940Z,89573.00
2023-02-06T04:04:58.885Z,89573.00
2023-02-06T04:05:58.854Z,89575.00
2023-02-06T04:06:58.819Z,89575.00
2023-02-06T04:07:58.783Z,89577.00
2023-02-06T04:08:58.759Z,89577.00
2023-02-06T04:09:58.704Z,89575.00
2023-02-06T04:10:58.672Z,89575.00
2023-02-06T04:11:58.646Z,89577.00
2023-02-06T04:12:58.592Z,89577.00
2023-02-06T04:13:58.552Z,89577.00
2023-02-06T04:14:58.516Z,89577.00
2023-02-06T04:15:58.479Z,89575.00
2023-02-06T04:16:58.449Z,89577.00
2023-02-06T04:18:00.963Z,89577.00
2023-02-06T04:18:58.378Z,89575.00
2023-02-06T04:19:58.339Z,89573.00
2023-02-06T04:20:58.283Z,89577.00
2023-02-06T04:21:58.242Z,89579.00
2023-02-06T04:22:58.224Z,89581.00
2023-02-06T04:23:58.167Z,89581.00
2023-02-06T04:24:58.132Z,89579.00
2023-02-06T04:25:58.095Z,89583.00
2023-02-06T04:26:58.059Z,89587.00
2023-02-06T04:27:58.037Z,89589.00
2023-02-06T04:28:57.984Z,89593.00
2023-02-06T04:29:57.952Z,89589.00
2023-02-06T04:30:58.090Z,89589.00
2023-02-06T04:31:57.875Z,89585.00
2023-02-06T04:32:57.883Z,89587.00
2023-02-06T06:49:52.739Z,89587.00
2023-02-06T07:04:52.130Z,89595.00
2023-02-06T07:06:52.013Z,89601.00
2023-02-06T07:07:51.978Z,89597.00
2023-02-06T07:08:51.903Z,89599.00
2023-02-06T07:09:51.958Z,89601.00
2023-02-06T07:10:51.814Z,89599.00
2023-02-06T07:11:51.765Z,89601.00
2023-02-06T07:12:51.750Z,89601.00
2023-02-06T07:13:51.707Z,89601.00
2023-02-06T07:14:51.632Z,89595.00
2023-02-06T07:15:51.602Z,89593.00
2023-02-06T07:16:51.539Z,89595.00
2023-02-06T07:17:51.504Z,89593.00
2023-02-06T07:18:51.456Z,89589.00
2023-02-06T07:19:51.438Z,89591.00
2023-02-06T07:20:51.373Z,89591.00
2023-02-06T07:21:51.340Z,89593.00
2023-02-06T07:22:51.273Z,89589.00
2023-02-06T07:23:51.223Z,89587.00
2023-02-06T07:24:53.462Z,89587.00
2023-02-06T07:25:51.120Z,89587.00
2023-02-06T07:26:51.072Z,89583.00
2023-02-06T07:27:51.227Z,89585.00
2023-02-06T07:28:50.977Z,89583.00
2023-02-06T07:29:50.944Z,89583.00
2023-02-06T07:30:50.918Z,89581.00
2023-02-06T07:31:50.903Z,89583.00
2023-02-06T07:32:50.794Z,89583.00
2023-02-06T07:33:50.741Z,89587.00
2023-02-06T07:34:50.694Z,89587.00
2023-02-06T07:35:50.629Z,89583.00
2023-02-06T07:36:50.596Z,89579.00
2023-02-06T07:37:50.563Z,89577.00
2023-02-06T07:38:50.516Z,89577.00
2023-02-06T07:39:50.485Z,89577.00
2023-02-06T07:40:50.445Z,89581.00
2023-02-06T07:41:50.426Z,89585.00
2023-02-06T07:42:50.379Z,89587.00
2023-02-06T07:43:50.373Z,89583.00
2023-02-06T07:44:50.310Z,89583.00
2023-02-06T07:45:50.362Z,89575.00
2023-02-06T07:46:50.235Z,89581.00
2023-02-06T07:47:50.204Z,89577.00
2023-02-06T07:48:50.226Z,89583.00
2023-02-06T07:49:50.153Z,89579.00
2023-02-06T07:50:50.126Z,89575.00
2023-02-06T07:51:50.084Z,89575.00
2023-02-06T07:52:50.008Z,89577.00
2023-02-06T07:53:49.976Z,89577.00
2023-02-06T07:54:49.933Z,89575.00
2023-02-06T07:55:49.877Z,89575.00
2023-02-06T07:56:49.822Z,89573.00
2023-02-06T07:57:49.796Z,89572.00
2023-02-06T07:58:49.743Z,89573.00
2023-02-06T07:59:49.698Z,89573.00
2023-02-06T08:00:49.728Z,89573.00
2023-02-06T08:01:49.599Z,89575.00
2023-02-06T08:02:49.548Z,89577.00
2023-02-06T08:03:49.510Z,89577.00
2023-02-06T08:04:49.465Z,89579.00
2023-02-06T08:05:49.452Z,89577.00
2023-02-06T08:06:49.373Z,89575.00
2023-02-06T08:07:49.336Z,89577.00
2023-02-06T08:08:49.320Z,89573.00
2023-02-06T08:09:49.243Z,89575.00
2023-02-06T08:10:49.187Z,89572.00
2023-02-06T08:11:49.155Z,89572.00
2023-02-06T08:12:49.097Z,89570.00
2023-02-06T08:13:49.066Z,89568.00
2023-02-06T08:14:49.121Z,89566.00
2023-02-06T08:15:49.000Z,89562.00
2023-02-06T08:16:49.146Z,89558.00
2023-02-06T08:17:48.885Z,89554.00
2023-02-06T08:18:48.847Z,89556.00
2023-02-06T08:19:48.793Z,89552.00
2023-02-06T08:20:48.756Z,89550.00
2023-02-06T08:21:48.708Z,89548.00
2023-02-06T08:22:48.654Z,89544.00
2023-02-06T08:23:48.604Z,89546.00
2023-02-06T08:24:48.561Z,89546.00
2023-02-06T08:25:48.506Z,89544.00
2023-02-06T08:26:48.463Z,89544.00
2023-02-06T08:27:48.472Z,89542.00
2023-02-06T08:28:48.384Z,89542.00
2023-02-06T08:29:48.356Z,89542.00
2023-02-06T08:30:48.457Z,89546.00
2023-02-06T08:31:49.275Z,89552.00
2023-02-06T08:32:48.178Z,89552.00
2023-02-06T08:33:48.130Z,89552.00
2023-02-06T08:34:48.079Z,89550.00
2023-02-06T08:35:48.024Z,89552.00
2023-02-06T08:36:47.980Z,89548.00
2023-02-06T08:37:47.925Z,89544.00
2023-02-06T08:38:47.867Z,89544.00
2023-02-06T09:28:45.349Z,89552.00
2023-02-06T09:57:43.982Z,89558.00
2023-02-06T09:59:43.881Z,89558.00
2023-02-06T10:00:43.829Z,89556.00
2023-02-06T10:08:43.450Z,89544.00
2023-02-06T10:09:43.405Z,89542.00
2023-02-06T10:10:43.361Z,89540.00
2023-02-06T10:11:43.323Z,89542.00
2023-02-06T10:12:43.263Z,89544.00
2023-02-06T10:13:43.213Z,89542.00
2023-02-06T10:14:43.174Z,89538.00
2023-02-06T10:15:43.127Z,89536.00
2023-02-06T10:16:43.085Z,89536.00
2023-02-06T10:17:43.035Z,89530.00
2023-02-06T10:18:42.987Z,89526.00
2023-02-06T10:19:42.938Z,89526.00
2023-02-06T10:20:42.896Z,89525.00
2023-02-06T10:21:42.838Z,89525.00
2023-02-06T10:22:42.795Z,89523.00
2023-02-06T10:23:42.746Z,89521.00
2023-02-06T10:24:42.692Z,89517.00
2023-02-06T10:25:42.656Z,89517.00
2023-02-06T10:26:42.642Z,89519.00
2023-02-06T10:27:42.563Z,89521.00
2023-02-06T10:28:42.503Z,89519.00
2023-02-06T10:29:42.482Z,89519.00
2023-02-06T10:30:42.441Z,89515.00
2023-02-06T10:31:42.412Z,89515.00
2023-02-06T10:32:42.313Z,89511.00
2023-02-06T10:33:42.268Z,89504.00
2023-02-06T10:34:42.213Z,89511.00
2023-02-06T10:35:42.177Z,89500.00
2023-02-06T10:36:42.113Z,89496.00
2023-02-06T10:37:42.051Z,89490.00
2023-02-06T10:38:42.004Z,89492.00
2023-02-06T10:39:41.969Z,89494.00
2023-02-06T10:40:41.906Z,89486.00
2023-02-06T10:41:41.896Z,89488.00
2023-02-06T10:42:41.816Z,89484.00
2023-02-06T10:43:41.760Z,89480.00
2023-02-06T10:44:48.417Z,89482.00
2023-02-06T10:45:42.671Z,89476.00
2023-02-06T10:46:41.649Z,89472.00
2023-02-06T10:47:41.647Z,89470.00
2023-02-06T10:48:41.576Z,89462.00
2023-02-06T10:49:41.544Z,89462.00
2023-02-06T10:50:41.532Z,89462.00
2023-02-06T10:51:41.573Z,89456.00
2023-02-06T10:52:41.511Z,89454.00
2023-02-06T10:53:41.488Z,89456.00
2023-02-06T10:54:41.470Z,89450.00
2023-02-06T10:55:41.467Z,89452.00
2023-02-06T10:56:41.422Z,89450.00
2023-02-06T10:57:41.387Z,89447.00
2023-02-06T10:58:41.369Z,89449.00
2023-02-06T10:59:41.334Z,89443.00
2023-02-06T11:00:41.307Z,89447.00
2023-02-06T11:01:41.328Z,89443.00
2023-02-06T11:02:41.210Z,89439.00
2023-02-06T11:03:41.169Z,89437.00
2023-02-06T11:04:41.132Z,89433.00
2023-02-06T11:05:41.152Z,89431.00
2023-02-06T11:06:41.060Z,89429.00
2023-02-06T11:07:41.006Z,89433.00
2023-02-06T11:08:40.958Z,89429.00
2023-02-06T11:09:40.928Z,89423.00
2023-02-06T11:10:40.872Z,89419.00
2023-02-06T11:11:40.835Z,89415.00
2023-02-06T11:12:40.809Z,89415.00
2023-02-06T11:13:40.737Z,89411.00
2023-02-06T11:14:40.686Z,89403.00
2023-02-06T11:15:40.639Z,89405.00
2023-02-06T11:16:40.617Z,89398.00
2023-02-06T11:17:40.531Z,89400.00
2023-02-06T11:18:40.479Z,89396.00
2023-02-06T11:19:40.441Z,89390.00
2023-02-06T11:20:40.367Z,89392.00
2023-02-06T11:21:40.312Z,89390.00
2023-02-06T11:22:51.274Z,89386.00
2023-02-06T11:24:40.166Z,89384.00
2023-02-06T11:25:40.278Z,89380.00
2023-02-06T11:26:40.043Z,89380.00
2023-02-06T11:27:40.072Z,89378.00
2023-02-06T11:28:39.955Z,89374.00
2023-02-06T11:29:39.882Z,89374.00
2023-02-06T11:30:40.194Z,89378.00
2023-02-06T11:31:39.815Z,89374.00
2023-02-06T11:32:39.740Z,89372.00
2023-02-06T11:33:39.666Z,89372.00
2023-02-06T11:34:39.609Z,89370.00
2023-02-06T11:46:38.951Z,89341.00
2023-02-06T11:47:38.876Z,89341.00
2023-02-06T11:48:38.868Z,89337.00
2023-02-06T11:49:38.739Z,89333.00
2023-02-06T11:50:38.862Z,89327.00
2023-02-06T11:51:38.643Z,89325.00
2023-02-06T11:52:38.582Z,89323.00
2023-02-06T11:53:38.517Z,89319.00
2023-02-06T11:54:38.437Z,89321.00
2023-02-06T11:55:38.795Z,89321.00
2023-02-06T11:56:38.314Z,89315.00
2023-02-06T11:57:38.341Z,89315.00
2023-02-06T11:58:38.248Z,89315.00
2023-02-06T11:59:38.177Z,89315.00
2023-02-06T12:00:38.104Z,89319.00
2023-02-06T12:01:38.013Z,89311.00
2023-02-06T12:02:38.016Z,89313.00
2023-02-06T12:03:37.921Z,89325.00
2023-02-06T12:04:37.842Z,89317.00
2023-02-06T14:19:29.800Z,89173.00
2023-02-06T14:20:29.758Z,89175.00
2023-02-06T14:21:29.685Z,89177.00
2023-02-06T14:22:29.633Z,89175.00
2023-02-06T14:23:29.582Z,89178.00
2023-02-06T14:24:29.545Z,89178.00
2023-02-06T14:25:29.482Z,89180.00
2023-02-06T14:26:29.417Z,89177.00
2023-02-06T14:27:29.371Z,89180.00
2023-02-06T14:28:29.299Z,89178.00
2023-02-06T14:29:29.261Z,89171.00
2023-02-06T14:30:29.235Z,89169.00
2023-02-06T14:31:29.199Z,89167.00
2023-02-06T14:32:29.080Z,89163.00
2023-02-06T14:33:29.022Z,89161.00
2023-02-06T14:34:28.969Z,89163.00
2023-02-06T14:35:28.943Z,89159.00
2023-02-06T14:36:28.858Z,89161.00
2023-02-06T14:37:28.803Z,89159.00
2023-02-06T14:38:28.738Z,89157.00
2023-02-06T14:39:28.686Z,89159.00
2023-02-06T14:40:28.648Z,89159.00
2023-02-06T14:41:28.582Z,89159.00
2023-02-06T14:42:28.517Z,89157.00
2023-02-06T14:43:28.455Z,89159.00
2023-02-06T14:44:28.418Z,89159.00
2023-02-06T14:45:29.331Z,89159.00
2023-02-06T14:46:28.316Z,89155.00
2023-02-06T14:47:28.267Z,89153.00
2023-02-06T14:48:28.211Z,89151.00
2023-02-06T14:49:28.144Z,89147.00
2023-02-06T14:50:28.089Z,89145.00
2023-02-06T14:51:28.058Z,89145.00
2023-02-06T14:52:27.976Z,89149.00
2023-02-06T14:53:27.921Z,89151.00
2023-02-06T14:54:27.873Z,89153.00
2023-02-06T14:55:27.876Z,89155.00
2023-02-06T17:24:20.443Z,89194.00
2023-02-06T17:25:20.408Z,89194.00
2023-02-06T17:26:20.363Z,89192.00
2023-02-06T17:27:20.314Z,89192.00
2023-02-06T17:28:20.408Z,89188.00
2023-02-06T17:29:20.226Z,89188.00
2023-02-06T17:30:20.184Z,89188.00
2023-02-06T17:31:20.233Z,89186.00
2023-02-06T17:32:20.089Z,89188.00
2023-02-06T17:33:20.052Z,89188.00
2023-02-06T17:34:20.012Z,89188.00
2023-02-06T17:35:19.976Z,89184.00
2023-02-06T17:36:19.925Z,89186.00
2023-02-06T17:37:19.899Z,89186.00
2023-02-06T17:38:19.827Z,89184.00
2023-02-06T17:39:19.798Z,89186.00
2023-02-06T17:40:19.774Z,89186.00
2023-02-06T17:41:19.706Z,89184.00
2023-02-06T17:42:19.670Z,89184.00
2023-02-06T17:43:19.624Z,89178.00
2023-02-06T17:44:19.590Z,89186.00
2023-02-06T17:45:19.541Z,89186.00
2023-02-06T17:46:19.577Z,89184.00
2023-02-06T17:47:19.471Z,89186.00
2023-02-06T17:48:19.431Z,89190.00
2023-02-06T17:49:19.406Z,89192.00
2023-02-06T17:50:19.336Z,89194.00
2023-02-06T17:51:19.303Z,89196.00
2023-02-06T17:52:19.263Z,89198.00
2023-02-06T17:53:19.213Z,89202.00
2023-02-06T17:54:19.169Z,89202.00
2023-02-06T17:55:19.112Z,89202.00
2023-02-06T17:56:19.085Z,89206.00
2023-02-06T17:57:19.022Z,89208.00
2023-02-06T17:58:18.978Z,89210.00
2023-02-06T17:59:18.937Z,89210.00
2023-02-06T18:00:18.898Z,89210.00
2023-02-06T18:01:18.909Z,89214.00
2023-02-06T18:02:18.796Z,89212.00
2023-02-06T18:03:18.753Z,89214.00
2023-02-06T18:04:18.715Z,89216.00
2023-02-06T18:05:18.674Z,89222.00
2023-02-06T18:06:18.631Z,89220.00
2023-02-06T18:07:18.592Z,89220.00
2023-02-06T18:08:18.564Z,89222.00
2023-02-06T18:09:18.508Z,89224.00
2023-02-06T18:10:18.457Z,89226.00
2023-02-06T18:11:18.460Z,89228.00
2023-02-06T18:12:18.366Z,89228.00
2023-02-06T18:13:18.324Z,89228.00
2023-02-06T18:14:18.281Z,89230.00
2023-02-06T18:15:18.227Z,89235.00
2023-02-06T18:16:18.253Z,89233.00
2023-02-06T18:17:18.147Z,89235.00
2023-02-06T18:18:18.085Z,89237.00
2023-02-06T18:19:18.053Z,89235.00
2023-02-06T18:20:18.018Z,89239.00
2023-02-06T18:21:17.982Z,89239.00
2023-02-06T18:22:17.924Z,89237.00
2023-02-06T18:23:17.884Z,89237.00
2023-02-06T18:24:17.864Z,89241.00
2023-02-06T18:25:17.820Z,89239.00
2023-02-06T21:37:10.148Z,89380.00
2023-02-06T21:38:10.093Z,89380.00
2023-02-06T21:39:10.059Z,89382.00
2023-02-06T21:40:10.022Z,89384.00
2023-02-06T21:41:09.978Z,89386.00
2023-02-06T21:42:09.941Z,89386.00
2023-02-06T21:43:09.893Z,89386.00
2023-02-06T21:44:09.852Z,89386.00
2023-02-06T21:45:09.799Z,89388.00
2023-02-06T21:46:09.767Z,89390.00
2023-02-06T21:47:09.708Z,89390.00
2023-02-06T21:48:09.671Z,89394.00
2023-02-06T21:49:09.618Z,89400.00
2023-02-06T21:50:09.590Z,89402.00
2023-02-06T21:51:09.540Z,89405.00
2023-02-06T21:52:09.488Z,89407.00
2023-02-06T21:53:09.456Z,89409.00
2023-02-06T21:54:09.402Z,89411.00
2023-02-06T21:55:09.366Z,89413.00
2023-02-06T21:56:09.338Z,89417.00
2023-02-06T21:57:09.291Z,89415.00
2023-02-06T21:58:09.259Z,89417.00
2023-02-06T21:59:09.207Z,89419.00
2023-02-06T22:00:09.195Z,89417.00
2023-02-06T22:01:09.223Z,89413.00
2023-02-06T22:02:09.095Z,89413.00
2023-02-06T22:03:09.098Z,89409.00
2023-02-06T22:04:09.009Z,89407.00
2023-02-06T22:05:08.972Z,89407.00
2023-02-06T22:06:08.939Z,89407.00
2023-02-06T22:07:08.899Z,89409.00
2023-02-06T22:08:08.870Z,89411.00
2023-02-06T22:09:08.846Z,89413.00
2023-02-06T22:10:08.800Z,89415.00
2023-02-06T22:11:08.766Z,89417.00
2023-02-06T22:12:08.717Z,89421.00
2023-02-06T22:13:08.682Z,89421.00
2023-02-06T22:14:08.649Z,89421.00
2023-02-06T22:15:08.602Z,89421.00
2023-02-06T22:16:08.649Z,89423.00
2023-02-06T22:17:08.530Z,89423.00
2023-02-06T22:18:08.477Z,89423.00
2023-02-06T22:19:08.449Z,89423.00
2023-02-06T22:20:08.412Z,89421.00
2023-02-06T22:21:08.360Z,89421.00
2023-02-06T22:22:08.347Z,89421.00
2023-02-06T22:23:08.283Z,89423.00
2023-02-06T22:24:08.247Z,89423.00
2023-02-06T22:25:08.213Z,89427.00
2023-02-06T22:26:08.160Z,89427.00
2023-02-06T22:27:08.111Z,89433.00
2023-02-06T22:28:08.132Z,89433.00
2023-02-06T22:29:08.030Z,89433.00
2023-02-06T22:30:07.991Z,89433.00
2023-02-06T22:31:08.048Z,89435.00
2023-02-06T22:32:07.912Z,89431.00
2023-02-06T22:33:07.876Z,89431.00
2023-02-06T22:34:07.824Z,89429.00
